Time;durP1;ratioP1;P1;durP2;ratioP2;P2;SDS_P1;SDS_P2;PMS_P1;PMS_P2;Temp;Humidity;BMP_temperature;BMP_pressure;BME280_temperature;BME280_humidity;BME280_pressure;Samples;Min_cycle;Max_cycle;Signal;HPM_P1;HPM_P2
2023/07/22 00:00:05;;;;;;;7.60;4.13;;;;;;;-142.57;95.28;115900.28;6260204;23;20015;-85
2023/07/22 00:02:34;;;;;;;9.50;3.90;;;;;;;-142.57;96.91;115900.28;6256692;23;20040;-86
2023/07/22 00:05:02;;;;;;;7.72;4.00;;;;;;;-142.57;96.43;115900.28;6255477;23;20021;-85
2023/07/22 00:07:28;;;;;;;9.52;4.47;;;;;;;-142.57;96.58;115900.28;6254826;23;20016;-86
2023/07/22 00:10:17;;;;;;;9.40;3.90;;;;;;;-142.57;97.47;115900.28;6203042;23;20008;-84
2023/07/22 00:13:09;;;;;;;9.82;4.35;;;;;;;-142.57;97.26;115900.28;6104878;23;20014;-84
2023/07/22 00:15:34;;;;;;;8.30;4.63;;;;;;;-142.57;98.30;115900.28;6048010;23;20015;-84
2023/07/22 00:18:03;;;;;;;9.30;3.80;;;;;;;-142.57;98.10;115900.28;6047704;23;20016;-85
2023/07/22 00:20:29;;;;;;;7.85;4.40;;;;;;;-142.57;98.40;115900.28;6048002;23;20015;-84
2023/07/22 00:23:19;;;;;;;9.82;4.85;;;;;;;-142.57;99.82;115900.28;6086242;23;20019;-84
2023/07/22 00:26:07;;;;;;;11.18;4.38;;;;;;;-142.57;99.50;115900.28;6176650;23;20013;-83
2023/07/22 00:28:32;;;;;;;7.78;4.15;;;;;;;-142.57;100.00;115900.28;6203712;23;20017;-85
2023/07/22 00:31:03;;;;;;;8.68;4.28;;;;;;;-142.57;100.00;115900.28;6201396;23;20027;-82
2023/07/22 00:33:28;;;;;;;8.35;4.43;;;;;;;-142.57;100.00;115900.28;6176910;23;20155;-82
2023/07/22 00:36:03;;;;;;;9.32;4.38;;;;;;;-142.57;100.00;115900.28;6196371;23;20005;-83
2023/07/22 00:38:28;;;;;;;9.88;4.05;;;;;;;-142.57;100.00;115900.28;6168860;23;20023;-86
2023/07/22 00:40:54;;;;;;;6.40;3.83;;;;;;;-142.57;100.00;115900.28;6194921;23;20013;-85
2023/07/22 00:43:43;;;;;;;5.43;3.50;;;;;;;-142.57;100.00;115900.28;6169929;23;20024;-84
2023/07/22 00:46:19;;;;;;;11.70;4.05;;;;;;;-142.57;100.00;115900.28;6146051;23;20076;-85
2023/07/22 00:48:55;;;;;;;8.13;4.40;;;;;;;-142.57;100.00;115900.28;6168789;23;20036;-83
2023/07/22 00:51:33;;;;;;;5.65;3.50;;;;;;;-142.57;100.00;115900.28;6194330;23;20013;-83
2023/07/22 00:54:28;;;;;;;6.80;3.75;;;;;;;-142.57;100.00;115900.28;6233360;23;20039;-84
2023/07/22 00:57:18;;;;;;;8.43;3.92;;;;;;;-142.57;100.00;115900.28;6206817;23;20015;-84
2023/07/22 00:59:45;;;;;;;7.38;4.03;;;;;;;-142.57;100.00;115900.28;6208794;23;20031;-87
2023/07/22 01:02:10;;;;;;;5.38;3.70;;;;;;;-142.57;100.00;115900.28;6237614;23;20011;-88
2023/07/22 01:04:37;;;;;;;9.55;4.47;;;;;;;-142.57;100.00;115900.28;6259836;23;20008;-88
2023/07/22 01:07:07;;;;;;;9.27;3.80;;;;;;;-142.57;100.00;115900.28;6254921;23;20058;-85
2023/07/22 01:09:37;;;;;;;7.45;4.00;;;;;;;-142.57;100.00;115900.28;6226819;23;20012;-84
2023/07/22 01:12:05;;;;;;;10.05;4.50;;;;;;;-142.57;100.00;115900.28;6226541;23;20577;-87
2023/07/22 01:14:41;;;;;;;9.18;4.32;;;;;;;-142.57;100.00;115900.28;6254940;23;20439;-85
2023/07/22 01:17:09;;;;;;;8.43;4.07;;;;;;;-142.57;100.00;115900.28;6253110;23;20015;-88
2023/07/22 01:19:39;;;;;;;6.80;4.25;;;;;;;-142.57;100.00;115900.28;6252462;23;20146;-85
2023/07/22 01:22:10;;;;;;;9.85;4.70;;;;;;;-142.57;100.00;115900.28;6225628;23;20039;-87
2023/07/22 01:24:38;;;;;;;9.57;4.23;;;;;;;-142.57;100.00;115900.28;6250664;23;20079;-87
2023/07/22 01:27:08;;;;;;;7.95;4.25;;;;;;;-142.57;100.00;115900.28;6224449;23;20058;-85
2023/07/22 01:29:35;;;;;;;6.70;3.50;;;;;;;-142.57;100.00;115900.28;6224956;23;20008;-87
2023/07/22 01:32:00;;;;;;;8.48;4.45;;;;;;;-142.57;100.00;115900.28;6251087;23;20035;-85
2023/07/22 01:34:26;;;;;;;6.88;4.50;;;;;;;-142.57;100.00;115900.28;6223302;23;20004;-85
2023/07/22 01:36:53;;;;;;;9.18;4.13;;;;;;;-142.57;100.00;115900.28;6223734;23;20334;-86
2023/07/22 01:39:20;;;;;;;8.63;4.50;;;;;;;-142.57;100.00;115900.28;6224212;23;20035;-85
2023/07/22 01:41:46;;;;;;;8.77;5.07;;;;;;;-142.57;100.00;115900.28;6225927;23;20064;-87
2023/07/22 01:44:12;;;;;;;8.60;4.30;;;;;;;-142.57;100.00;115900.28;6251712;23;20048;-87
2023/07/22 01:46:38;;;;;;;10.85;4.55;;;;;;;-142.57;100.00;115900.28;6252546;23;20051;-84
2023/07/22 01:49:08;;;;;;;7.78;4.70;;;;;;;-142.57;100.00;115900.28;6251149;23;20074;-86
2023/07/22 01:51:37;;;;;;;9.52;4.55;;;;;;;-142.57;100.00;115900.28;6251674;23;20012;-87
2023/07/22 01:54:04;;;;;;;8.15;4.70;;;;;;;-142.57;100.00;115900.28;6251383;23;20008;-85
2023/07/22 01:56:29;;;;;;;13.38;4.60;;;;;;;-142.57;100.00;115900.28;6248562;23;20450;-84
2023/07/22 01:58:55;;;;;;;12.85;4.32;;;;;;;-142.57;100.00;115900.28;6224060;23;20016;-85
2023/07/22 02:01:21;;;;;;;8.85;4.53;;;;;;;-142.57;100.00;115900.28;6224255;23;20016;-86
2023/07/22 02:03:46;;;;;;;7.80;4.03;;;;;;;-142.57;100.00;115900.28;6250830;23;20011;-87
2023/07/22 02:06:12;;;;;;;8.68;4.18;;;;;;;-142.57;100.00;115900.28;6224204;23;20020;-87
2023/07/22 02:08:38;;;;;;;5.57;3.55;;;;;;;-142.57;100.00;115900.28;6251794;23;20032;-85
2023/07/22 02:11:08;;;;;;;8.77;4.22;;;;;;;-142.57;100.00;115900.28;6224053;23;20095;-85
2023/07/22 02:13:35;;;;;;;9.38;4.90;;;;;;;-142.57;100.00;115900.28;6222502;23;20075;-85
2023/07/22 02:16:01;;;;;;;9.07;5.60;;;;;;;-142.57;100.00;115900.28;6198847;23;20004;-84
2023/07/22 02:18:27;;;;;;;8.90;5.18;;;;;;;-142.57;100.00;115900.28;6249692;23;20164;-84
2023/07/22 02:20:54;;;;;;;11.55;6.28;;;;;;;-142.57;100.00;115900.28;6250699;23;20016;-86
2023/07/22 02:23:24;;;;;;;9.43;5.97;;;;;;;-142.57;100.00;115900.28;6251628;23;20019;-87
2023/07/22 02:25:53;;;;;;;11.20;6.35;;;;;;;-142.57;100.00;115900.28;6224539;23;20008;-85
2023/07/22 02:28:21;;;;;;;15.75;6.35;;;;;;;-142.57;100.00;115900.28;6224478;23;20070;-86
2023/07/22 02:30:48;;;;;;;8.93;5.80;;;;;;;-142.57;100.00;115900.28;6200596;23;20079;-87
2023/07/22 02:33:15;;;;;;;12.60;5.68;;;;;;;-142.57;100.00;115900.28;6251499;23;20030;-86
2023/07/22 02:35:41;;;;;;;13.05;5.85;;;;;;;-142.57;100.00;115900.28;6223772;23;20016;-84
2023/07/22 02:38:07;;;;;;;10.40;5.80;;;;;;;-142.57;100.00;115900.28;6250330;23;20004;-83
2023/07/22 02:40:45;;;;;;;18.05;6.13;;;;;;;-142.57;100.00;115900.28;6249648;23;20058;-86
2023/07/22 02:43:11;;;;;;;16.35;5.32;;;;;;;-142.57;100.00;115900.28;6249084;23;20039;-87
2023/07/22 02:45:37;;;;;;;17.67;6.53;;;;;;;-142.57;100.00;115900.28;6249952;23;20004;-87
2023/07/22 02:48:03;;;;;;;9.57;5.57;;;;;;;-142.57;100.00;115900.28;6249456;23;20067;-85
2023/07/22 02:50:29;;;;;;;11.50;6.35;;;;;;;-142.57;100.00;115900.28;6197702;23;20004;-87
2023/07/22 02:52:54;;;;;;;10.05;6.50;;;;;;;-142.57;100.00;115900.28;6222111;23;20497;-87
2023/07/22 02:55:20;;;;;;;9.80;5.65;;;;;;;-142.57;100.00;115900.28;6250092;23;20332;-86
2023/07/22 02:57:47;;;;;;;12.50;5.90;;;;;;;-142.57;100.00;115900.28;6223221;23;20542;-86
2023/07/22 03:00:23;;;;;;;11.18;6.15;;;;;;;-142.57;100.00;115900.28;6222218;23;20083;-85
2023/07/22 03:02:52;;;;;;;11.57;6.18;;;;;;;-142.57;100.00;115900.28;6223967;23;20092;-86
2023/07/22 03:05:18;;;;;;;10.10;5.45;;;;;;;-142.57;100.00;115900.28;6222592;22;20006;-86
2023/07/22 03:07:44;;;;;;;10.90;6.15;;;;;;;-142.57;100.00;115900.28;6200305;23;20074;-84
2023/07/22 03:10:10;;;;;;;9.82;6.10;;;;;;;-142.57;100.00;115900.28;6253157;23;20008;-86
2023/07/22 03:12:38;;;;;;;11.52;6.47;;;;;;;-142.57;100.00;115900.28;6225851;23;20076;-87
2023/07/22 03:15:08;;;;;;;11.15;6.00;;;;;;;-142.57;100.00;115900.28;6251542;23;20012;-86
2023/07/22 03:17:38;;;;;;;9.18;5.68;;;;;;;-142.57;100.00;115900.28;6226174;23;20343;-86
2023/07/22 03:20:25;;;;;;;9.95;6.30;;;;;;;-142.57;100.00;115900.28;6251893;23;20016;-85
2023/07/22 03:22:52;;;;;;;13.15;6.72;;;;;;;-142.57;100.00;115900.28;6252180;23;20011;-88
2023/07/22 03:25:20;;;;;;;12.30;6.15;;;;;;;-142.57;100.00;115900.28;6224855;23;20362;-85
2023/07/22 03:27:46;;;;;;;9.02;6.10;;;;;;;-142.57;100.00;115900.28;6251264;23;20092;-86
2023/07/22 03:30:17;;;;;;;10.25;6.32;;;;;;;-142.57;100.00;115900.28;6225454;23;20335;-84
2023/07/22 03:32:44;;;;;;;11.15;6.57;;;;;;;-142.57;100.00;115900.28;6225942;23;20354;-86
2023/07/22 03:35:10;;;;;;;9.57;6.35;;;;;;;-142.57;100.00;115900.28;6253231;23;20000;-85
2023/07/22 03:37:37;;;;;;;13.52;6.65;;;;;;;-142.57;100.00;115900.28;6251997;23;20032;-86
2023/07/22 03:40:11;;;;;;;10.90;6.35;;;;;;;-142.57;100.00;115900.28;6224659;23;20036;-88
2023/07/22 03:42:37;;;;;;;9.38;6.20;;;;;;;-142.57;100.00;115900.28;6252715;23;20054;-86
2023/07/22 03:45:04;;;;;;;11.43;6.60;;;;;;;-142.57;100.00;115900.28;6225142;23;20091;-83
2023/07/22 03:47:30;;;;;;;12.43;6.93;;;;;;;-142.57;100.00;115900.28;6224647;23;20028;-88
2023/07/22 03:49:55;;;;;;;10.13;6.57;;;;;;;-142.57;100.00;115900.28;6250686;23;20497;-85
2023/07/22 03:52:21;;;;;;;14.00;7.32;;;;;;;-142.57;100.00;115900.28;6198045;23;20012;-86
2023/07/22 03:54:47;;;;;;;9.77;6.50;;;;;;;-142.57;100.00;115900.28;6249904;23;20019;-86
2023/07/22 03:57:13;;;;;;;14.82;7.68;;;;;;;-142.57;100.00;115900.28;6250158;23;20000;-87
2023/07/22 03:59:39;;;;;;;14.55;7.00;;;;;;;-142.57;100.00;115900.28;6223520;23;20309;-86
2023/07/22 04:02:05;;;;;;;13.45;6.80;;;;;;;-142.57;100.00;115900.28;6223744;23;20019;-86
2023/07/22 04:04:31;;;;;;;11.07;7.03;;;;;;;-142.57;100.00;115900.28;6250015;23;20008;-84
2023/07/22 04:06:57;;;;;;;11.85;5.85;;;;;;;-142.57;100.00;115900.28;6203257;23;20114;-84
2023/07/22 04:09:23;;;;;;;9.52;6.57;;;;;;;-142.57;100.00;115900.28;6238701;23;20012;-84
2023/07/22 04:11:48;;;;;;;11.55;6.32;;;;;;;-142.57;100.00;115900.28;6226990;23;20386;-86
2023/07/22 04:14:14;;;;;;;12.27;6.97;;;;;;;-142.57;100.00;115900.28;6225044;23;20012;-86
2023/07/22 04:16:40;;;;;;;12.02;6.32;;;;;;;-142.57;100.00;115900.28;6252117;23;20016;-88
2023/07/22 04:19:06;;;;;;;12.77;6.65;;;;;;;-142.57;100.00;115900.28;6224444;23;20012;-87
2023/07/22 04:21:31;;;;;;;10.30;6.00;;;;;;;-142.57;100.00;115900.28;6251957;23;20036;-85
2023/07/22 04:23:57;;;;;;;9.88;5.97;;;;;;;-142.57;100.00;115900.28;6253272;23;20398;-83
2023/07/22 04:26:24;;;;;;;11.50;5.20;;;;;;;-142.57;100.00;115900.28;6252567;23;20008;-85
2023/07/22 04:28:50;;;;;;;10.02;4.95;;;;;;;-142.57;100.00;115900.28;6226491;23;20066;-85
2023/07/22 04:31:16;;;;;;;8.60;5.53;;;;;;;-142.57;100.00;115900.28;6262763;23;20000;-88
2023/07/22 04:33:41;;;;;;;10.75;5.82;;;;;;;-142.57;100.00;115900.28;6260129;23;20023;-86
2023/07/22 04:36:07;;;;;;;13.50;6.18;;;;;;;-142.57;100.00;115900.28;6237707;23;20023;-86
2023/07/22 04:38:33;;;;;;;13.98;7.40;;;;;;;-142.57;100.00;115900.28;6245143;22;20038;-86
2023/07/22 04:41:01;;;;;;;12.85;6.60;;;;;;;-142.57;100.00;115900.28;6274458;23;20004;-82
2023/07/22 04:43:27;;;;;;;11.35;6.82;;;;;;;-142.57;100.00;115900.28;6273695;22;20004;-84
2023/07/22 04:45:53;;;;;;;15.15;7.28;;;;;;;-142.57;100.00;115900.28;6274496;22;20010;-83
2023/07/22 04:48:24;;;;;;;11.98;7.50;;;;;;;-142.57;100.00;115900.28;6272138;22;20097;-85
2023/07/22 04:50:50;;;;;;;13.23;8.45;;;;;;;-142.57;100.00;115900.28;6264693;23;20008;-87
2023/07/22 04:53:17;;;;;;;14.65;7.40;;;;;;;-142.57;100.00;115900.28;6266004;23;20012;-85
2023/07/22 04:55:44;;;;;;;13.00;7.28;;;;;;;-142.57;100.00;115900.28;6260503;23;20008;-87
2023/07/22 04:58:10;;;;;;;12.55;7.40;;;;;;;-142.57;100.00;115900.28;6216853;23;20000;-85
2023/07/22 05:00:38;;;;;;;14.68;8.45;;;;;;;-142.57;100.00;115900.28;6244367;23;20038;-87
2023/07/22 05:03:05;;;;;;;15.25;8.10;;;;;;;-142.57;100.00;115900.28;6259926;23;20075;-87
2023/07/22 05:05:32;;;;;;;15.93;7.15;;;;;;;-142.57;100.00;115900.28;6251516;23;20331;-88
2023/07/22 05:07:59;;;;;;;19.73;8.30;;;;;;;-142.57;100.00;115900.28;6251803;23;20423;-86
2023/07/22 05:10:26;;;;;;;17.60;8.40;;;;;;;-142.57;100.00;115900.28;6251140;23;20343;-87
2023/07/22 05:12:51;;;;;;;15.63;8.57;;;;;;;-142.57;100.00;115900.28;6251463;23;20008;-84
2023/07/22 05:15:17;;;;;;;13.68;9.02;;;;;;;-142.57;100.00;115900.28;6224612;23;20043;-88
2023/07/22 05:17:44;;;;;;;17.38;8.50;;;;;;;-142.57;100.00;115900.28;6225310;23;20072;-84
2023/07/22 05:20:10;;;;;;;19.83;8.75;;;;;;;-142.57;100.00;115900.28;6251012;23;20000;-85
2023/07/22 05:22:37;;;;;;;19.33;9.52;;;;;;;-142.57;100.00;115900.28;6246506;23;20023;-85
2023/07/22 05:25:09;;;;;;;19.75;10.43;;;;;;;-142.57;100.00;115900.28;6202526;23;20036;-92
2023/07/22 05:27:51;;;;;;;19.92;10.00;;;;;;;-142.57;100.00;115900.28;6267903;23;20012;-92
2023/07/22 05:30:20;;;;;;;19.95;9.82;;;;;;;-142.57;100.00;115900.28;6242837;23;20008;-85
2023/07/22 05:32:45;;;;;;;20.20;10.55;;;;;;;-142.57;100.00;115900.28;6258534;23;20475;-87
2023/07/22 05:35:11;;;;;;;24.23;11.90;;;;;;;-142.57;100.00;115900.28;6197021;23;20489;-85
2023/07/22 05:37:37;;;;;;;28.45;11.70;;;;;;;-142.57;100.00;115900.28;6248673;23;20008;-86
2023/07/22 05:40:03;;;;;;;22.17;10.25;;;;;;;-142.57;100.00;115900.28;6248338;23;20153;-86
2023/07/22 05:42:29;;;;;;;25.75;10.40;;;;;;;-142.57;100.00;115900.28;6247969;23;20030;-87
2023/07/22 05:44:57;;;;;;;18.30;9.10;;;;;;;-142.57;100.00;115900.28;6221451;23;20431;-87
2023/07/22 05:47:23;;;;;;;17.25;9.75;;;;;;;-142.57;100.00;115900.28;6247016;23;20015;-86
2023/07/22 05:49:49;;;;;;;22.30;9.90;;;;;;;-142.57;100.00;115900.28;6220885;23;20016;-86
2023/07/22 05:52:14;;;;;;;15.02;8.35;;;;;;;-142.57;100.00;115900.28;6221309;23;20012;-87
2023/07/22 05:54:40;;;;;;;14.73;8.82;;;;;;;-142.57;100.00;115900.28;6247986;23;20387;-87
2023/07/22 05:57:06;;;;;;;13.82;8.30;;;;;;;-142.57;100.00;115900.28;6219066;23;20335;-84
2023/07/22 05:59:32;;;;;;;18.55;9.20;;;;;;;-142.57;100.00;115900.28;6246465;23;20012;-84
2023/07/22 06:01:59;;;;;;;18.88;9.40;;;;;;;-142.57;99.03;115900.28;6220317;23;20008;-84
2023/07/22 06:04:25;;;;;;;18.77;11.13;;;;;;;-142.57;97.61;115900.28;6247273;23;20068;-85
2023/07/22 06:07:18;;;;;;;19.83;10.25;;;;;;;-142.57;99.10;115900.28;6259824;23;20023;-85
2023/07/22 06:10:10;;;;;;;27.15;9.65;;;;;;;-142.57;98.89;115900.28;6255582;23;20096;-84
2023/07/22 06:13:01;;;;;;;21.63;9.70;;;;;;;-142.57;95.51;115900.28;6252223;23;20067;-84
2023/07/22 06:15:53;;;;;;;20.77;10.88;;;;;;;-142.57;91.20;115900.28;6251038;23;20018;-83
2023/07/22 06:18:19;;;;;;;20.67;10.52;;;;;;;-142.57;92.18;115900.28;6260388;23;20008;-82
2023/07/22 06:20:45;;;;;;;19.67;10.25;;;;;;;-142.57;87.82;115900.28;6249303;23;20015;-85
2023/07/22 06:23:11;;;;;;;18.70;10.32;;;;;;;-142.57;89.25;115900.28;6247678;23;20008;-85
2023/07/22 06:25:36;;;;;;;16.17;10.10;;;;;;;-142.57;88.92;115900.28;6246322;23;20019;-87
2023/07/22 06:28:02;;;;;;;23.95;11.73;;;;;;;-142.57;87.25;115900.28;6220088;23;20012;-87
2023/07/22 06:30:28;;;;;;;20.58;11.30;;;;;;;-142.57;86.38;115900.28;6247637;23;20012;-86
2023/07/22 06:32:54;;;;;;;20.27;11.55;;;;;;;-142.57;87.21;115900.28;6246772;23;20316;-85
2023/07/22 06:35:19;;;;;;;21.48;11.63;;;;;;;-142.57;83.07;115900.28;6222314;23;20008;-87
2023/07/22 06:37:45;;;;;;;23.75;11.07;;;;;;;-142.57;78.94;115900.28;6250546;23;20015;-86
2023/07/22 06:40:11;;;;;;;23.83;11.70;;;;;;;-142.57;79.03;115900.28;6251281;23;20063;-90
2023/07/22 06:42:37;;;;;;;26.17;12.10;;;;;;;-142.57;78.12;115900.28;6250294;23;20453;-83
2023/07/22 06:45:03;;;;;;;21.92;10.70;;;;;;;-142.57;79.31;115900.28;6249051;23;19996;-92
2023/07/22 06:47:29;;;;;;;18.88;9.98;;;;;;;-142.57;76.53;115900.28;6197203;23;20009;-89
2023/07/22 06:49:58;;;;;;;25.65;10.88;;;;;;;-142.57;76.22;115900.28;6224598;23;20008;-86
2023/07/22 06:52:24;;;;;;;21.15;12.10;;;;;;;-142.57;77.23;115900.28;6248979;23;20334;-86
2023/07/22 06:54:49;;;;;;;22.92;11.38;;;;;;;-142.57;77.19;115900.28;6248537;23;20008;-83
2023/07/22 06:57:15;;;;;;;30.92;12.73;;;;;;;-142.57;79.73;115900.28;6221762;23;20427;-85
2023/07/22 06:59:41;;;;;;;23.67;12.88;;;;;;;-142.57;77.31;115900.28;6222167;23;20095;-85
2023/07/22 07:02:08;;;;;;;24.77;12.75;;;;;;;-142.57;76.98;115900.28;6248547;23;20012;-84
2023/07/22 07:04:34;;;;;;;19.58;10.25;;;;;;;-142.57;78.35;115900.28;6248574;23;20004;-87
2023/07/22 07:07:00;;;;;;;22.58;12.88;;;;;;;-142.57;76.60;115900.28;6247976;23;20439;-84
2023/07/22 07:09:25;;;;;;;24.50;13.32;;;;;;;-142.57;80.46;115900.28;6221422;23;20008;-86
2023/07/22 07:11:51;;;;;;;22.48;11.07;;;;;;;-142.57;81.53;115900.28;6247920;23;20008;-83
2023/07/22 07:14:18;;;;;;;22.95;12.55;;;;;;;-142.57;81.51;115900.28;6221122;23;20378;-86
2023/07/22 07:16:44;;;;;;;24.83;11.85;;;;;;;-142.57;80.91;115900.28;6221452;23;20127;-84
2023/07/22 07:19:10;;;;;;;23.85;11.93;;;;;;;-142.57;82.84;115900.28;6248205;23;20036;-85
2023/07/22 07:21:36;;;;;;;24.65;13.27;;;;;;;-142.57;85.18;115900.28;6247987;23;20008;-86
2023/07/22 07:24:02;;;;;;;27.40;13.32;;;;;;;-142.57;85.40;115900.28;6247875;23;20047;-88
2023/07/22 07:26:27;;;;;;;27.42;13.82;;;;;;;-142.57;83.91;115900.28;6221327;23;20034;-86
2023/07/22 07:28:53;;;;;;;34.72;14.88;;;;;;;-142.57;85.36;115900.28;6196796;23;20023;-86
2023/07/22 07:31:20;;;;;;;29.77;13.88;;;;;;;-142.57;85.99;115900.28;6252455;23;20004;-85
2023/07/22 07:33:46;;;;;;;24.27;12.45;;;;;;;-142.57;80.38;115900.28;6249652;23;20466;-90
2023/07/22 07:36:11;;;;;;;26.55;12.48;;;;;;;-142.57;78.03;115900.28;6221510;23;20019;-88
2023/07/22 07:38:37;;;;;;;23.63;12.93;;;;;;;-142.57;74.65;115900.28;6251277;23;20008;-87
2023/07/22 07:41:08;;;;;;;31.58;14.18;;;;;;;-142.57;77.42;115900.28;6247809;23;20451;-85
2023/07/22 07:43:33;;;;;;;28.67;13.45;;;;;;;-142.57;76.20;115900.28;6251114;23;20146;-91
2023/07/22 07:46:23;;;;;;;28.33;14.40;;;;;;;-142.57;76.36;115900.28;6223476;23;20020;-88
2023/07/22 07:48:53;;;;;;;20.30;12.38;;;;;;;-142.57;76.05;115900.28;6249596;23;20015;-88
2023/07/22 07:51:21;;;;;;;23.67;12.30;;;;;;;-142.57;75.61;115900.28;6225784;23;20444;-92
2023/07/22 07:53:50;;;;;;;23.83;12.75;;;;;;;-142.57;72.93;115900.28;6263509;23;20023;-87
2023/07/22 07:56:17;;;;;;;27.70;12.38;;;;;;;-142.57;71.11;115900.28;6259308;23;20015;-88
2023/07/22 07:58:44;;;;;;;32.35;12.85;;;;;;;-142.57;73.05;115900.28;6252579;23;20008;-90
2023/07/22 08:01:10;;;;;;;28.15;13.32;;;;;;;-142.57;74.87;115900.28;6222450;23;20320;-89
2023/07/22 08:03:37;;;;;;;19.95;11.70;;;;;;;-142.57;75.72;115900.28;6226592;23;20039;-86
2023/07/22 08:06:03;;;;;;;25.48;13.35;;;;;;;-142.57;76.73;115900.28;6249916;23;20042;-88
2023/07/22 08:08:29;;;;;;;27.70;13.77;;;;;;;-142.57;75.99;115900.28;6250536;23;20015;-90
2023/07/22 08:11:09;;;;;;;30.92;13.02;;;;;;;-142.57;75.81;115900.28;6252995;23;20014;-91
2023/07/22 08:13:36;;;;;;;32.53;13.32;;;;;;;-142.57;75.39;115900.28;6226207;23;20020;-89
2023/07/22 08:22:07;;;;;;;21.23;12.38;;;;;;;-142.57;74.40;115900.28;6253688;23;20473;-85
2023/07/22 08:24:34;;;;;;;29.73;13.52;;;;;;;-142.57;71.90;115900.28;6249410;23;20020;-88
2023/07/22 08:26:59;;;;;;;20.85;12.93;;;;;;;-142.57;73.24;115900.28;6250900;23;20336;-87
2023/07/22 08:29:27;;;;;;;25.92;14.07;;;;;;;-142.57;71.95;115900.28;6253412;23;20036;-88
2023/07/22 08:31:53;;;;;;;31.60;15.40;;;;;;;-142.57;76.40;115900.28;6252002;23;20012;-87
2023/07/22 08:34:19;;;;;;;32.22;14.75;;;;;;;-142.57;78.67;115900.28;6252165;23;20320;-87
2023/07/22 08:36:44;;;;;;;31.52;14.45;;;;;;;-142.57;76.57;115900.28;6199648;23;20443;-88
2023/07/22 08:39:10;;;;;;;27.00;14.10;;;;;;;-142.57;73.74;115900.28;6223095;23;20000;-88
2023/07/22 08:41:36;;;;;;;29.02;12.68;;;;;;;-142.57;70.30;115900.28;6249341;23;20078;-83
2023/07/22 08:44:04;;;;;;;23.77;12.75;;;;;;;-142.57;68.16;115900.28;6246635;23;20039;-88
2023/07/22 08:46:33;;;;;;;18.20;9.57;;;;;;;-142.57;65.56;115900.28;6247305;23;20015;-86
2023/07/22 08:49:00;;;;;;;20.40;11.82;;;;;;;-142.57;66.37;115900.28;6221453;23;20084;-85
2023/07/22 08:51:29;;;;;;;25.70;12.70;;;;;;;-142.57;65.32;115900.28;6248856;23;20019;-84
2023/07/22 08:53:58;;;;;;;29.85;13.70;;;;;;;-142.57;67.52;115900.28;6248308;23;20104;-83
2023/07/22 08:56:25;;;;;;;31.58;13.55;;;;;;;-142.57;64.06;115900.28;6248610;23;20074;-84
2023/07/22 08:58:52;;;;;;;23.42;12.52;;;;;;;-142.57;64.73;115900.28;6247891;23;20054;-86
2023/07/22 09:01:18;;;;;;;26.48;12.32;;;;;;;-142.57;66.04;115900.28;6218656;23;20043;-85
2023/07/22 09:03:44;;;;;;;24.60;12.73;;;;;;;-142.57;63.97;115900.28;6220705;23;20020;-85
2023/07/22 09:06:10;;;;;;;20.17;12.13;;;;;;;-142.57;66.09;115900.28;6247469;23;20012;-87
2023/07/22 09:08:38;;;;;;;29.98;13.10;;;;;;;-142.57;67.41;115900.28;6247313;23;20351;-86
2023/07/22 09:11:06;;;;;;;22.92;12.00;;;;;;;-142.57;66.12;115900.28;6247344;23;20431;-85
2023/07/22 09:13:34;;;;;;;27.23;11.55;;;;;;;-142.57;65.49;115900.28;6247674;23;20016;-85
2023/07/22 09:16:01;;;;;;;25.15;11.73;;;;;;;-142.57;65.80;115900.28;6247399;23;20473;-86
2023/07/22 09:18:26;;;;;;;20.65;11.10;;;;;;;-142.57;65.58;115900.28;6225994;23;20477;-84
2023/07/22 09:20:52;;;;;;;24.52;11.43;;;;;;;-142.57;65.96;115900.28;6248578;23;20098;-85
2023/07/22 09:23:31;;;;;;;19.20;10.48;;;;;;;-142.57;68.16;115900.28;6248723;23;20008;-86
2023/07/22 09:26:08;;;;;;;21.05;11.35;;;;;;;-142.57;67.97;115900.28;6221437;23;20311;-86
2023/07/22 09:28:57;;;;;;;22.20;11.27;;;;;;;-142.57;64.38;115900.28;6247213;23;20012;-88
2023/07/22 09:31:27;;;;;;;29.58;10.98;;;;;;;-142.57;62.26;115900.28;6245290;23;20343;-86
2023/07/22 09:33:54;;;;;;;25.52;12.27;;;;;;;-142.57;61.91;115900.28;6244596;23;20091;-84
2023/07/22 09:36:20;;;;;;;20.85;11.55;;;;;;;-142.57;62.33;115900.28;6245530;23;20011;-84
2023/07/22 09:38:57;;;;;;;23.50;11.68;;;;;;;-142.57;62.28;115900.28;6249781;23;20023;-86
2023/07/22 09:41:27;;;;;;;25.77;10.40;;;;;;;-142.57;62.79;115900.28;6247999;23;20008;-82
2023/07/22 09:43:53;;;;;;;19.88;10.18;;;;;;;-142.57;61.59;115900.28;6245785;23;20019;-82
2023/07/22 09:46:18;;;;;;;18.23;9.48;;;;;;;-142.57;63.54;115900.28;6245537;23;20012;-81
2023/07/22 09:48:45;;;;;;;22.67;9.70;;;;;;;-142.57;64.44;115900.28;6245766;23;20112;-83
2023/07/22 09:51:13;;;;;;;21.17;9.40;;;;;;;-142.57;63.09;115900.28;6245243;23;20035;-83
2023/07/22 09:53:44;;;;;;;18.98;8.68;;;;;;;-142.57;63.13;115900.28;6245477;23;20004;-87
2023/07/22 09:56:09;;;;;;;23.92;8.48;;;;;;;-142.57;61.35;115900.28;6218830;23;20034;-84
2023/07/22 09:58:36;;;;;;;24.35;8.80;;;;;;;-142.57;61.61;115900.28;6245688;23;20012;-83
2023/07/22 10:01:02;;;;;;;19.05;8.45;;;;;;;-142.57;60.42;115900.28;6218351;23;20020;-82
2023/07/22 10:03:30;;;;;;;20.15;8.15;;;;;;;-142.57;60.61;115900.28;6245844;23;20007;-83
2023/07/22 10:06:00;;;;;;;17.38;7.82;;;;;;;-142.57;59.52;115900.28;6193635;23;20350;-83
2023/07/22 10:08:27;;;;;;;15.18;7.63;;;;;;;-142.57;57.99;115900.28;6246799;23;20035;-82
2023/07/22 10:10:55;;;;;;;24.70;9.65;;;;;;;-142.57;58.09;115900.28;6245081;23;20035;-83
2023/07/22 10:13:22;;;;;;;13.85;7.25;;;;;;;-142.57;56.92;115900.28;6249589;23;20019;-83
2023/07/22 10:15:55;;;;;;;17.27;7.32;;;;;;;-142.57;55.92;115900.28;6225285;22;20013;-82
2023/07/22 10:18:23;;;;;;;21.70;7.60;;;;;;;-142.57;54.34;115900.28;6184830;23;20010;-84
2023/07/22 10:20:49;;;;;;;15.80;6.57;;;;;;;-142.57;54.77;115900.28;6184045;23;20005;-80
2023/07/22 10:23:15;;;;;;;17.60;7.00;;;;;;;-142.57;55.33;115900.28;6204895;23;20009;-82
2023/07/22 10:25:42;;;;;;;11.90;6.32;;;;;;;-142.57;54.44;115900.28;6204253;23;20009;-83
2023/07/22 10:28:08;;;;;;;16.63;7.00;;;;;;;-142.57;56.17;115900.28;6163721;23;20020;-83
2023/07/22 10:30:34;;;;;;;13.98;7.25;;;;;;;-142.57;55.28;115900.28;6188321;23;20009;-84
2023/07/22 10:32:59;;;;;;;18.85;7.47;;;;;;;-142.57;56.52;115900.28;6188585;23;20016;-83
2023/07/22 10:35:31;;;;;;;21.33;8.07;;;;;;;-142.57;56.90;115900.28;6187923;23;20080;-83
2023/07/22 10:38:08;;;;;;;17.17;6.65;;;;;;;-142.57;55.58;115900.28;6188820;23;20013;-85
2023/07/22 10:40:45;;;;;;;14.23;7.55;;;;;;;-142.57;53.77;115900.28;6187680;23;20085;-86
2023/07/22 10:43:10;;;;;;;12.38;6.13;;;;;;;-142.57;52.69;115900.28;6187538;23;20009;-84
2023/07/22 10:45:48;;;;;;;18.40;6.05;;;;;;;-142.57;52.93;115900.28;6161772;23;20519;-85
2023/07/22 10:48:14;;;;;;;14.13;5.72;;;;;;;-142.57;51.42;115900.28;6187987;23;20068;-85
2023/07/22 10:50:54;;;;;;;15.68;6.07;;;;;;;-142.57;49.16;115900.28;6161396;23;20080;-85
2023/07/22 10:53:25;;;;;;;11.77;4.88;;;;;;;-142.57;49.57;115900.28;6188444;23;20067;-85
2023/07/22 10:56:11;;;;;;;20.33;6.35;;;;;;;-142.57;49.19;115900.28;6188519;23;20013;-86
2023/07/22 10:58:48;;;;;;;12.65;6.30;;;;;;;-142.57;49.92;115900.28;6188838;23;20020;-84
2023/07/22 11:01:26;;;;;;;18.13;6.97;;;;;;;-142.57;52.06;115900.28;6191575;23;20340;-87
2023/07/22 11:04:16;;;;;;;15.77;5.75;;;;;;;-142.57;54.59;115900.28;6162246;23;20440;-84
2023/07/22 11:06:48;;;;;;;16.75;7.45;;;;;;;-142.57;57.36;115900.28;6184319;23;20013;-84
2023/07/22 11:09:35;;;;;;;17.17;5.60;;;;;;;-142.57;57.68;115900.28;6185411;23;20009;-83